Estestar — 3ECR8 — position and weather

sailwx.info

Track history (hours):
 
Tides and Currents Weather Stations Pressure Air Temp Water Temp Dewpoint Dewpoint Depression Visibility Wind Speed Wind Dir Waves Ship Positions

Estestar

Last reported at 2015-Jan-15 08:13 UTC. Time now 2015-Jan-26 18:35 UTC.
Position N 37°01' E 002°34'.
Warning: this ship's position is 11 days out of date.

Length 133 m; draft 7.5 m.

Type: Ship (hazmat cat B). MMSI: 371448000.

Date/timePositionNaut miles runAvg speedWind from/ knotsBaromVisibWave heightAir tempDewpointWater temp
2015-Jan-15 08:13N 37°01' E 002°34'5 7.7
2015-Jan-15 07:33N 37°02' E 002°40'19 9.0
2015-Jan-15 05:24N 37°06' E 003°04'37 8.9
2015-Jan-15 01:14N 37°10' E 003°50'10 9.3
2015-Jan-15 00:11N 37°11' E 004°02'6 9.1
2015-Jan-14 23:33N 37°12' E 004°09'9 9.1
2015-Jan-14 22:34N 37°13' E 004°21'107 8.9
2015-Jan-14 10:33N 37°19' E 006°35'9 9.2
2015-Jan-14 09:32N 37°19' E 006°47'72 9.7
2015-Jan-14 02:05N 37°20' E 008°18'5 9.1
2015-Jan-14 01:31N 37°20' E 008°24'27 9.0
2015-Jan-13 22:31N 37°25' E 008°58'9 8.8
2015-Jan-13 21:31N 37°27' E 009°08'217 9.0
2015-Jan-12 21:23N 36°47' E 013°36'9 9.2
2015-Jan-12 20:25N 36°45' E 013°46'8 8.8
2015-Jan-12 19:30N 36°43' E 013°56'8 8.5
2015-Jan-12 18:33N 36°41' E 014°06'9 8.8
2015-Jan-12 17:33N 36°39' E 014°17'9 8.6
2015-Jan-12 16:33N 36°38' E 014°27'  
2015-Jan-10 08:22N 37°19' E 023°56'910.0
2015-Jan-10 07:29N 37°26' E 024°02'910.0
2015-Jan-10 06:33N 37°34' E 024°08'13 9.9
2015-Jan-10 05:17N 37°44' E 024°18'11 9.6
2015-Jan-10 04:11N 37°51' E 024°28'103 9.4
2015-Jan-09 17:16N 39°22' E 025°30'207 6.7
2015-Jan-08 10:32N 41°25' E 029°09'  
2015-Jan-05 19:28N 44°28' E 037°37'8 8.8
2015-Jan-05 18:33N 44°34' E 037°45'7 7.4
2015-Jan-05 17:34N 44°40' E 037°50'4 3.7
2015-Jan-05 16:32N 44°44' E 037°48'0 0.0
2015-Jan-05 15:32N 44°44' E 037°48'0 0.0
2015-Jan-05 14:32N 44°44' E 037°48'0 0.0
2015-Jan-05 13:32N 44°44' E 037°48'0 0.0
2015-Jan-05 12:32N 44°44' E 037°48'0 0.0
2015-Jan-05 11:32N 44°44' E 037°48'0 0.0
2015-Jan-05 10:32N 44°44' E 037°48'0 0.0
2015-Jan-05 09:32N 44°44' E 037°48'0 0.0
2015-Jan-05 08:32N 44°44' E 037°48'  
Track history (hours):
 
Tides and Currents Weather Stations Pressure Air Temp Water Temp Dewpoint Dewpoint Depression Visibility Wind Speed Wind Dir Waves Ship Positions

Estestar

Last reported at 2015-Jan-15 08:13 UTC. Time now 2015-Jan-26 18:35 UTC.
Position N 37°01' E 002°34'.
Warning: this ship's position is 11 days out of date.

Length 133 m; draft 7.5 m.

Type: Ship (hazmat cat B). MMSI: 371448000.

Date/timePositionNaut miles runAvg speedWind from/ knotsBaromVisibWave heightAir tempDewpointWater temp
2015-Jan-15 08:13N 37°01' E 002°34'5 7.7
2015-Jan-15 07:33N 37°02' E 002°40'19 9.0
2015-Jan-15 05:24N 37°06' E 003°04'37 8.9
2015-Jan-15 01:14N 37°10' E 003°50'10 9.3
2015-Jan-15 00:11N 37°11' E 004°02'6 9.1
2015-Jan-14 23:33N 37°12' E 004°09'9 9.1
2015-Jan-14 22:34N 37°13' E 004°21'107 8.9
2015-Jan-14 10:33N 37°19' E 006°35'9 9.2
2015-Jan-14 09:32N 37°19' E 006°47'72 9.7
2015-Jan-14 02:05N 37°20' E 008°18'5 9.1
2015-Jan-14 01:31N 37°20' E 008°24'27 9.0
2015-Jan-13 22:31N 37°25' E 008°58'9 8.8
2015-Jan-13 21:31N 37°27' E 009°08'217 9.0
2015-Jan-12 21:23N 36°47' E 013°36'9 9.2
2015-Jan-12 20:25N 36°45' E 013°46'8 8.8
2015-Jan-12 19:30N 36°43' E 013°56'8 8.5
2015-Jan-12 18:33N 36°41' E 014°06'9 8.8
2015-Jan-12 17:33N 36°39' E 014°17'9 8.6
2015-Jan-12 16:33N 36°38' E 014°27'  
2015-Jan-10 08:22N 37°19' E 023°56'910.0
2015-Jan-10 07:29N 37°26' E 024°02'910.0
2015-Jan-10 06:33N 37°34' E 024°08'13 9.9
2015-Jan-10 05:17N 37°44' E 024°18'11 9.6
2015-Jan-10 04:11N 37°51' E 024°28'103 9.4
2015-Jan-09 17:16N 39°22' E 025°30'207 6.7
2015-Jan-08 10:32N 41°25' E 029°09'  
2015-Jan-05 19:28N 44°28' E 037°37'8 8.8
2015-Jan-05 18:33N 44°34' E 037°45'7 7.4
2015-Jan-05 17:34N 44°40' E 037°50'4 3.7
2015-Jan-05 16:32N 44°44' E 037°48'0 0.0
2015-Jan-05 15:32N 44°44' E 037°48'0 0.0
2015-Jan-05 14:32N 44°44' E 037°48'0 0.0
2015-Jan-05 13:32N 44°44' E 037°48'0 0.0
2015-Jan-05 12:32N 44°44' E 037°48'0 0.0
2015-Jan-05 11:32N 44°44' E 037°48'0 0.0
2015-Jan-05 10:32N 44°44' E 037°48'0 0.0
2015-Jan-05 09:32N 44°44' E 037°48'0 0.0
2015-Jan-05 08:32N 44°44' E 037°48'  

Dump ship's entire track history